Terminal Aerodrome Forecast
Issued by NWS Austin/San Antonio, TX

Home | Current Version | Previous Version | Text Only | Print | Product List | Glossary On
Versions: 1 2 3 4 5 6 7 8 9 10 11 12 13 14 15 16 17 18 19 20 21 22 23 24 25 26 27 28 29
000
FTUS44 KEWX 030000 AAB
TAFSAT
TAF AMD
KSAT 030035Z 0301/0406 05006KT 1/4SM FG OVC004
     FM030600 11002KT 1/2SM FG OVC002
     FM031800 19007KT 1SM BR OVC005=

USA.gov is the U.S. government's official web portal to all federal, state and local government web resources and services.